createdAt,value
2022-10-21T00:00:34.342Z,79.47
2022-10-21T00:01:31.044Z,79.65
2022-10-21T00:02:27.684Z,79.66
2022-10-21T00:03:25.558Z,79.69
2022-10-21T00:04:22.116Z,79.95
2022-10-21T00:05:18.845Z,79.94
2022-10-21T00:06:15.410Z,79.64
2022-10-21T00:07:12.007Z,79.88
2022-10-21T00:08:08.607Z,80.09
2022-10-21T00:09:05.246Z,80.13
2022-10-21T00:10:03.308Z,79.97
2022-10-21T00:11:02.373Z,80.03
2022-10-21T00:11:59.002Z,80.19
2022-10-21T00:12:55.568Z,79.97
2022-10-21T00:13:52.179Z,79.82
2022-10-21T00:14:50.001Z,79.68
2022-10-21T00:16:01.531Z,79.72
2022-10-21T00:16:59.286Z,79.71
2022-10-21T00:17:55.839Z,79.85
2022-10-21T00:18:52.442Z,79.75
2022-10-21T00:19:49.202Z,79.34
2022-10-21T00:20:45.766Z,79.12
2022-10-21T00:21:42.596Z,79.51
2022-10-21T00:22:39.735Z,79.29
2022-10-21T00:23:36.752Z,79.31
2022-10-21T00:24:33.448Z,78.67
2022-10-21T00:25:30.309Z,77.86
2022-10-21T00:26:26.977Z,77.83
2022-10-21T00:27:23.588Z,77.82
2022-10-21T00:28:20.147Z,78.02
2022-10-21T00:29:16.781Z,78.77
2022-10-21T00:30:13.885Z,78.78
2022-10-21T00:31:12.858Z,79.16
2022-10-21T00:32:09.478Z,78.95
2022-10-21T00:33:06.000Z,78.26
2022-10-21T00:34:02.668Z,78.37
2022-10-21T00:34:59.331Z,77.87
2022-10-21T00:35:58.227Z,77.86
2022-10-21T00:36:54.808Z,77.81
2022-10-21T00:37:51.360Z,78.47
2022-10-21T00:38:48.793Z,78.14
2022-10-21T00:39:45.536Z,78.72
2022-10-21T00:40:42.099Z,78.77
2022-10-21T00:41:38.721Z,78.69
2022-10-21T00:42:42.232Z,78.50
2022-10-21T00:44:01.571Z,78.20
2022-10-21T00:45:07.336Z,78.70
2022-10-21T00:46:07.224Z,78.88
2022-10-21T00:47:10.640Z,78.95
2022-10-21T00:48:20.030Z,79.11
2022-10-21T00:49:21.672Z,79.04
2022-10-21T00:50:37.458Z,79.61
2022-10-21T00:51:37.645Z,79.66
2022-10-21T00:52:35.103Z,79.74
2022-10-21T00:53:33.451Z,80.15
2022-10-21T00:54:31.473Z,80.39
2022-10-21T00:55:32.906Z,80.31
2022-10-21T00:56:33.852Z,79.67
2022-10-21T00:57:33.991Z,79.78
2022-10-21T00:58:32.162Z,80.18
2022-10-21T00:59:34.495Z,80.48
2022-10-21T01:00:31.240Z,80.46
2022-10-21T01:01:28.087Z,80.33
2022-10-21T01:02:24.736Z,80.89
2022-10-21T01:03:22.771Z,81.29
2022-10-21T01:04:19.555Z,80.84
2022-10-21T01:05:17.464Z,80.26
2022-10-21T01:06:16.001Z,80.20
2022-10-21T01:07:12.740Z,79.78
2022-10-21T01:08:09.305Z,79.67
2022-10-21T01:09:06.507Z,80.43
2022-10-21T01:10:04.260Z,80.37
2022-10-21T01:11:02.027Z,80.51
2022-10-21T01:12:01.792Z,80.24
2022-10-21T01:13:15.691Z,80.35
2022-10-21T01:14:23.129Z,80.36
2022-10-21T01:15:29.420Z,79.86
2022-10-21T01:16:53.139Z,79.35
2022-10-21T01:18:16.086Z,79.70
2022-10-21T01:19:18.467Z,79.45
2022-10-21T01:20:31.738Z,79.48
2022-10-21T01:22:13.211Z,79.70
2022-10-21T01:23:31.126Z,79.42
2022-10-21T01:24:36.628Z,78.41
2022-10-21T01:26:04.227Z,79.67
2022-10-21T01:27:12.961Z,79.41
2022-10-21T01:28:43.521Z,79.69
2022-10-21T01:29:40.024Z,79.89
2022-10-21T01:30:42.770Z,80.57
2022-10-21T01:32:14.268Z,80.89
2022-10-21T01:33:28.154Z,79.61
2022-10-21T01:34:42.497Z,80.51
2022-10-21T01:36:09.321Z,80.37
2022-10-21T01:37:14.702Z,80.19
2022-10-21T01:38:24.115Z,79.96
2022-10-21T01:39:28.224Z,79.78
2022-10-21T01:40:34.766Z,79.81
2022-10-21T01:41:47.334Z,80.31
2022-10-21T01:42:58.128Z,79.86
2022-10-21T01:44:03.529Z,79.47
2022-10-21T01:45:03.559Z,79.03
2022-10-21T01:46:11.626Z,79.45
2022-10-21T01:47:20.498Z,80.42
2022-10-21T01:48:27.699Z,81.31
2022-10-21T01:49:36.629Z,80.57
2022-10-21T01:50:47.731Z,80.38
2022-10-21T01:51:44.782Z,80.32
2022-10-21T01:52:45.091Z,80.38
2022-10-21T01:53:51.986Z,80.63
2022-10-21T01:54:55.059Z,81.24
2022-10-21T01:55:52.207Z,80.96
2022-10-21T01:56:50.794Z,80.79
2022-10-21T01:57:54.362Z,80.55
2022-10-21T01:58:53.172Z,81.01
2022-10-21T01:59:51.460Z,81.22
2022-10-21T02:00:51.166Z,81.05
2022-10-21T02:01:49.359Z,80.33
2022-10-21T02:02:48.582Z,80.06
2022-10-21T02:03:48.774Z,81.12
2022-10-21T02:04:47.802Z,81.79
2022-10-21T02:05:44.391Z,81.94
2022-10-21T02:06:41.142Z,81.25
2022-10-21T02:07:37.698Z,81.54
2022-10-21T02:08:34.635Z,81.17
2022-10-21T02:10:40.347Z,81.16
2022-10-21T02:11:39.028Z,82.23
2022-10-21T02:12:37.438Z,82.65
2022-10-21T02:13:42.050Z,81.60
2022-10-21T02:14:45.243Z,81.51
2022-10-21T02:15:43.213Z,81.23
2022-10-21T02:16:40.519Z,81.39
2022-10-21T02:17:40.121Z,81.45
2022-10-21T02:18:36.765Z,81.05
2022-10-21T02:19:33.562Z,81.38
2022-10-21T02:20:35.024Z,81.37
2022-10-21T02:21:36.609Z,82.22
2022-10-21T02:22:34.408Z,82.49
2022-10-21T02:23:55.638Z,82.32
2022-10-21T02:24:57.272Z,81.85
2022-10-21T02:25:53.868Z,81.40
2022-10-21T02:26:50.541Z,82.14
2022-10-21T02:27:48.251Z,82.10
2022-10-21T02:28:44.860Z,81.81
2022-10-21T02:29:44.437Z,81.92
2022-10-21T02:31:15.102Z,82.20
2022-10-21T02:32:27.061Z,82.03
2022-10-21T02:33:33.385Z,82.03
2022-10-21T02:34:52.915Z,81.31
2022-10-21T02:36:07.144Z,81.02
2022-10-21T02:37:09.321Z,81.84
2022-10-21T02:38:33.279Z,81.41
2022-10-21T02:39:39.591Z,82.30
2022-10-21T02:40:47.013Z,82.45
2022-10-21T02:41:44.357Z,82.83
2022-10-21T02:42:47.393Z,82.50
2022-10-21T02:43:51.464Z,81.57
2022-10-21T02:44:48.467Z,82.50
2022-10-21T02:45:48.986Z,82.71
2022-10-21T02:46:48.050Z,83.23
2022-10-21T02:47:45.022Z,82.89
2022-10-21T02:48:45.391Z,83.01
2022-10-21T02:49:44.275Z,83.35
2022-10-21T02:50:41.008Z,83.19
2022-10-21T02:51:37.820Z,83.11
2022-10-21T02:52:34.428Z,83.46
2022-10-21T02:53:31.288Z,84.00
2022-10-21T02:54:27.808Z,83.56
2022-10-21T02:55:25.422Z,83.36
2022-10-21T02:56:22.111Z,83.25
2022-10-21T02:57:18.749Z,82.96
2022-10-21T02:58:15.345Z,83.16
2022-10-21T02:59:11.979Z,83.04
2022-10-21T03:00:09.060Z,82.52
2022-10-21T03:01:05.853Z,82.69
2022-10-21T03:02:02.776Z,83.29
2022-10-21T03:02:59.386Z,83.42
2022-10-21T03:03:56.068Z,84.05
2022-10-21T03:04:52.639Z,84.50
2022-10-21T03:05:49.678Z,84.84
2022-10-21T03:06:46.239Z,84.30
2022-10-21T03:07:42.838Z,84.36
2022-10-21T03:08:39.453Z,84.41
2022-10-21T03:09:36.050Z,83.85
2022-10-21T03:10:32.695Z,83.60
2022-10-21T03:11:29.259Z,83.34
2022-10-21T03:12:25.849Z,83.31
2022-10-21T03:13:22.901Z,83.76
2022-10-21T03:14:19.464Z,84.01
2022-10-21T03:15:16.828Z,84.27
2022-10-21T03:16:13.507Z,84.68
2022-10-21T03:17:10.100Z,84.41
2022-10-21T03:18:06.726Z,85.29
2022-10-21T03:19:03.311Z,85.32
2022-10-21T03:19:59.895Z,85.41
2022-10-21T03:20:56.554Z,85.36
2022-10-21T03:21:53.215Z,85.14
2022-10-21T03:22:49.811Z,85.38
2022-10-21T03:23:46.374Z,85.48
2022-10-21T03:24:43.089Z,85.16
2022-10-21T03:25:39.708Z,85.48
2022-10-21T03:26:36.287Z,85.51
2022-10-21T03:27:34.188Z,85.02
2022-10-21T03:28:30.771Z,84.92
2022-10-21T03:29:27.365Z,84.85
2022-10-21T03:30:23.959Z,84.60
2022-10-21T03:31:23.292Z,84.75
2022-10-21T03:32:19.954Z,84.49
2022-10-21T03:33:16.585Z,84.55
2022-10-21T03:34:13.146Z,84.51
2022-10-21T03:35:10.124Z,84.22
2022-10-21T03:36:07.196Z,84.48
2022-10-21T03:37:03.855Z,84.78
2022-10-21T03:38:00.443Z,84.75
2022-10-21T03:38:57.178Z,84.62
2022-10-21T03:39:53.735Z,84.54
2022-10-21T03:40:51.346Z,84.41
2022-10-21T03:41:47.916Z,84.62
2022-10-21T03:42:44.538Z,84.55
2022-10-21T03:43:41.210Z,83.92
2022-10-21T03:44:37.793Z,83.74
2022-10-21T03:45:34.415Z,84.08
2022-10-21T03:46:31.010Z,84.37
2022-10-21T03:47:27.621Z,84.40
2022-10-21T03:48:24.209Z,85.08
2022-10-21T03:49:21.641Z,85.34
2022-10-21T03:50:23.746Z,85.49
2022-10-21T03:51:22.009Z,84.98
2022-10-21T03:52:18.629Z,84.50
2022-10-21T03:53:37.942Z,84.35
2022-10-21T03:54:32.019Z,83.67
2022-10-21T03:55:28.630Z,83.28
2022-10-21T03:56:25.288Z,83.82
2022-10-21T03:57:21.944Z,84.30
2022-10-21T03:58:18.654Z,84.88
2022-10-21T03:59:15.307Z,84.64
2022-10-21T04:01:14.416Z,84.14
2022-10-21T04:02:11.128Z,83.78
2022-10-21T04:03:07.913Z,83.66
2022-10-21T04:04:04.608Z,83.85
2022-10-21T04:05:01.314Z,84.02
2022-10-21T04:05:58.091Z,84.01
2022-10-21T04:06:54.648Z,84.27
2022-10-21T04:07:53.142Z,84.39
2022-10-21T04:08:50.238Z,84.33
2022-10-21T04:09:47.166Z,84.27
2022-10-21T04:10:45.606Z,84.23
2022-10-21T04:11:42.810Z,84.25
2022-10-21T04:12:39.668Z,84.12
2022-10-21T04:13:36.644Z,84.02
2022-10-21T04:14:33.328Z,84.84
2022-10-21T04:15:30.107Z,84.85
2022-10-21T04:16:26.810Z,84.69
2022-10-21T04:17:23.372Z,84.47
2022-10-21T04:18:19.984Z,85.33
2022-10-21T04:19:18.733Z,85.49
2022-10-21T04:20:15.313Z,85.38
2022-10-21T04:21:12.576Z,85.04
2022-10-21T04:22:09.264Z,85.35
2022-10-21T04:23:05.917Z,85.60
2022-10-21T04:24:02.581Z,85.11
2022-10-21T04:25:00.970Z,85.97
2022-10-21T04:26:00.648Z,86.39
2022-10-21T04:26:57.289Z,86.60
2022-10-21T04:27:53.940Z,85.91
2022-10-21T04:28:50.603Z,86.60
2022-10-21T04:29:47.176Z,85.92
2022-10-21T04:30:43.742Z,85.80
2022-10-21T04:31:40.377Z,86.82
2022-10-21T04:32:37.325Z,87.25
2022-10-21T04:33:34.352Z,87.09
2022-10-21T04:34:31.047Z,87.63
2022-10-21T04:35:28.389Z,88.04
2022-10-21T04:36:25.008Z,87.38
2022-10-21T04:37:21.678Z,88.08
2022-10-21T04:38:18.250Z,88.33
2022-10-21T04:39:14.811Z,87.95
2022-10-21T04:40:11.695Z,87.54
2022-10-21T04:41:08.343Z,87.43
2022-10-21T04:42:04.962Z,86.67
2022-10-21T04:43:02.503Z,86.49
2022-10-21T04:43:59.138Z,86.10
2022-10-21T04:44:55.774Z,85.83
2022-10-21T04:45:53.222Z,86.10
2022-10-21T04:46:50.050Z,85.14
2022-10-21T04:47:46.631Z,85.49
2022-10-21T04:48:43.786Z,85.76
2022-10-21T04:49:40.499Z,85.76
2022-10-21T04:50:37.154Z,85.56
2022-10-21T04:51:35.210Z,85.80
2022-10-21T04:52:32.920Z,86.06
2022-10-21T04:53:29.540Z,86.55
2022-10-21T04:54:26.116Z,86.77
2022-10-21T04:55:22.762Z,86.32
2022-10-21T04:56:19.387Z,85.99
2022-10-21T04:57:16.050Z,85.43
2022-10-21T04:58:12.644Z,85.27
2022-10-21T04:59:09.663Z,84.74
2022-10-21T05:00:07.808Z,84.77
2022-10-21T05:01:04.734Z,85.45
2022-10-21T05:03:03.713Z,86.25
2022-10-21T05:04:00.345Z,86.25
2022-10-21T05:04:57.158Z,85.99
2022-10-21T05:05:54.067Z,84.67
2022-10-21T05:06:50.646Z,84.45
2022-10-21T05:07:47.223Z,85.36
2022-10-21T05:08:43.874Z,86.34
2022-10-21T05:09:40.621Z,86.92
2022-10-21T05:10:37.197Z,87.44
2022-10-21T05:11:33.778Z,87.12
2022-10-21T05:12:30.396Z,87.90
2022-10-21T05:13:30.228Z,87.26
2022-10-21T05:14:26.849Z,87.53
2022-10-21T05:15:25.014Z,87.54
2022-10-21T05:16:21.708Z,87.56
2022-10-21T05:17:18.271Z,86.98
2022-10-21T05:18:14.887Z,87.66
2022-10-21T05:19:12.078Z,87.60
2022-10-21T05:20:09.130Z,87.43
2022-10-21T05:21:05.883Z,86.95
2022-10-21T05:22:02.441Z,86.81
2022-10-21T05:22:59.021Z,87.16
2022-10-21T05:23:55.635Z,87.23
2022-10-21T05:24:52.233Z,87.46
2022-10-21T05:25:50.597Z,87.08
2022-10-21T05:26:47.155Z,87.17
2022-10-21T05:27:44.448Z,86.35
2022-10-21T05:28:41.056Z,85.96
2022-10-21T05:29:37.708Z,85.40
2022-10-21T05:30:34.373Z,85.14
2022-10-21T05:31:30.972Z,84.02
2022-10-21T05:32:27.549Z,83.57
2022-10-21T05:33:24.220Z,83.21
2022-10-21T05:34:23.559Z,83.41
2022-10-21T05:35:20.177Z,83.58
2022-10-21T05:36:18.474Z,83.73
2022-10-21T05:37:17.118Z,83.70
2022-10-21T05:38:13.675Z,84.55
2022-10-21T05:39:11.608Z,84.39
2022-10-21T05:40:08.555Z,84.47
2022-10-21T05:41:05.467Z,84.67
2022-10-21T05:42:02.268Z,84.63
2022-10-21T05:42:58.912Z,84.44
2022-10-21T05:43:55.534Z,83.40
2022-10-21T05:44:52.115Z,83.19
2022-10-21T05:45:48.793Z,82.48
2022-10-21T05:46:45.363Z,82.95
2022-10-21T05:47:42.174Z,82.69
2022-10-21T05:48:38.877Z,82.86
2022-10-21T05:49:35.509Z,82.68
2022-10-21T05:50:32.146Z,82.92
2022-10-21T05:51:28.802Z,83.08
2022-10-21T05:52:25.459Z,82.30
2022-10-21T05:53:26.454Z,80.97
2022-10-21T05:54:23.137Z,81.34
2022-10-21T05:55:19.776Z,81.44
2022-10-21T05:56:16.398Z,81.27
2022-10-21T05:57:13.083Z,81.10
2022-10-21T05:58:09.783Z,81.42
2022-10-21T05:59:09.328Z,81.69
2022-10-21T06:00:07.504Z,81.46
2022-10-21T06:01:04.263Z,81.86
2022-10-21T06:02:00.883Z,81.68
2022-10-21T06:02:57.434Z,80.53
2022-10-21T06:03:54.010Z,79.92
2022-10-21T06:04:50.568Z,79.97
2022-10-21T06:05:47.164Z,79.60
2022-10-21T06:06:43.998Z,79.84
2022-10-21T06:07:41.065Z,79.45
2022-10-21T06:08:41.918Z,79.79
2022-10-21T06:09:38.595Z,79.43
2022-10-21T06:10:35.407Z,79.67
2022-10-21T06:11:32.213Z,79.46
2022-10-21T06:12:28.859Z,79.09
2022-10-21T06:13:25.465Z,79.10
2022-10-21T06:14:22.068Z,78.76
2022-10-21T06:15:20.730Z,78.47
2022-10-21T06:16:17.755Z,78.47
2022-10-21T06:17:14.352Z,78.20
2022-10-21T06:18:10.936Z,78.70
2022-10-21T06:19:07.536Z,78.62
2022-10-21T06:20:04.524Z,78.43
2022-10-21T06:21:01.099Z,78.09
2022-10-21T06:21:58.455Z,77.67
2022-10-21T06:22:55.131Z,77.67
2022-10-21T06:23:54.944Z,77.29
2022-10-21T06:24:51.548Z,76.76
2022-10-21T06:25:57.715Z,76.91
2022-10-21T06:26:54.381Z,76.19
2022-10-21T06:27:52.267Z,75.97
2022-10-21T06:28:49.103Z,76.11
2022-10-21T06:29:46.188Z,76.07
2022-10-21T06:30:42.793Z,75.49
2022-10-21T06:31:39.415Z,76.37
2022-10-21T06:32:36.098Z,76.27
2022-10-21T06:33:32.922Z,76.16
2022-10-21T06:34:29.557Z,76.20
2022-10-21T06:35:26.331Z,75.89
2022-10-21T06:36:23.031Z,76.03
2022-10-21T06:37:20.894Z,75.61
2022-10-21T06:38:18.726Z,75.97
2022-10-21T06:39:16.583Z,76.02
2022-10-21T06:40:17.845Z,76.06
2022-10-21T06:41:15.580Z,76.21
2022-10-21T06:42:13.799Z,76.21
2022-10-21T06:43:11.002Z,75.95
2022-10-21T06:44:07.609Z,75.87
2022-10-21T06:45:04.611Z,75.67
2022-10-21T06:46:02.651Z,75.77
2022-10-21T06:46:59.214Z,75.83
2022-10-21T06:47:55.970Z,75.52
2022-10-21T06:48:52.855Z,75.34
2022-10-21T06:49:49.490Z,75.11
2022-10-21T06:50:46.137Z,74.68
2022-10-21T06:51:42.939Z,74.84
2022-10-21T06:52:40.330Z,74.80
2022-10-21T06:53:39.177Z,74.62
2022-10-21T06:54:36.255Z,74.73
2022-10-21T06:55:32.949Z,74.66
2022-10-21T06:56:29.769Z,74.14
2022-10-21T06:57:27.854Z,74.10
2022-10-21T06:58:24.483Z,73.80
2022-10-21T06:59:21.006Z,74.09
2022-10-21T07:00:17.959Z,73.88
2022-10-21T07:01:33.835Z,73.27
2022-10-21T07:02:36.265Z,73.15
2022-10-21T07:03:33.000Z,73.41
2022-10-21T07:04:29.763Z,73.57
2022-10-21T07:05:26.423Z,73.56
2022-10-21T07:06:23.100Z,73.66
2022-10-21T07:07:20.206Z,73.44
2022-10-21T07:08:18.035Z,73.78
2022-10-21T07:09:17.125Z,72.62
2022-10-21T07:10:13.737Z,72.88
2022-10-21T07:11:12.559Z,72.69
2022-10-21T07:12:09.248Z,72.45
2022-10-21T07:13:06.041Z,72.38
2022-10-21T07:14:02.625Z,72.57
2022-10-21T07:14:59.843Z,72.57
2022-10-21T07:16:05.518Z,73.10
2022-10-21T07:17:02.202Z,72.64
2022-10-21T07:18:01.024Z,72.85
2022-10-21T07:18:58.366Z,72.34
2022-10-21T07:19:54.931Z,72.46
2022-10-21T07:20:51.966Z,71.66
2022-10-21T07:21:48.645Z,72.82
2022-10-21T07:22:45.308Z,71.97
2022-10-21T07:23:42.855Z,72.06
2022-10-21T07:24:39.511Z,72.00
2022-10-21T07:25:36.343Z,72.15
2022-10-21T07:26:34.680Z,71.21
2022-10-21T07:27:31.373Z,70.49
2022-10-21T07:28:27.966Z,71.22
2022-10-21T07:29:24.532Z,71.42
2022-10-21T07:30:24.262Z,71.46
2022-10-21T07:31:21.928Z,72.13
2022-10-21T07:32:18.541Z,72.27
2022-10-21T07:33:15.479Z,72.04
2022-10-21T07:34:13.032Z,71.78
2022-10-21T07:35:09.753Z,71.42
2022-10-21T07:36:13.299Z,70.92
2022-10-21T07:37:09.903Z,69.59
2022-10-21T07:38:06.973Z,69.66
2022-10-21T07:39:07.602Z,69.51
2022-10-21T07:40:05.812Z,69.27
2022-10-21T07:41:03.364Z,68.11
2022-10-21T07:41:59.906Z,68.83
2022-10-21T07:42:57.436Z,68.03
2022-10-21T07:43:54.503Z,68.95
2022-10-21T07:44:53.242Z,68.69
2022-10-21T07:45:50.058Z,69.16
2022-10-21T07:46:48.583Z,69.37
2022-10-21T07:47:45.174Z,68.85
2022-10-21T07:48:42.060Z,68.50
2022-10-21T07:49:38.725Z,68.08
2022-10-21T07:50:35.873Z,68.32
2022-10-21T07:51:32.507Z,68.02
2022-10-21T07:52:29.076Z,67.08
2022-10-21T07:53:26.411Z,67.41
2022-10-21T07:54:23.113Z,68.34
2022-10-21T07:55:19.799Z,67.48
2022-10-21T07:56:20.000Z,67.87
2022-10-21T07:57:16.547Z,67.49
2022-10-21T07:58:13.167Z,67.53
2022-10-21T07:59:13.022Z,67.04
2022-10-21T08:00:11.667Z,67.28
2022-10-21T08:01:10.296Z,67.45
2022-10-21T08:02:07.117Z,66.11
2022-10-21T08:03:03.783Z,66.34
2022-10-21T08:04:00.461Z,66.06
2022-10-21T08:04:57.031Z,66.33
2022-10-21T08:05:54.504Z,65.53
2022-10-21T08:06:51.086Z,65.40
2022-10-21T08:07:48.043Z,65.38
2022-10-21T08:08:45.513Z,66.01
2022-10-21T08:09:42.120Z,66.09
2022-10-21T08:10:41.923Z,65.38
2022-10-21T08:11:39.125Z,64.52
2022-10-21T08:12:35.897Z,65.22
2022-10-21T08:13:33.481Z,65.31
2022-10-21T08:14:30.137Z,65.42
2022-10-21T08:15:26.737Z,65.22
2022-10-21T08:16:23.668Z,65.36
2022-10-21T08:17:20.297Z,64.89
2022-10-21T08:18:18.230Z,65.47
2022-10-21T08:19:20.002Z,64.80
2022-10-21T08:20:16.714Z,64.48
2022-10-21T08:21:13.841Z,65.40
2022-10-21T08:22:10.490Z,65.71
2022-10-21T08:23:07.997Z,65.89
2022-10-21T08:24:05.520Z,66.17
2022-10-21T08:25:02.145Z,66.09
2022-10-21T08:26:03.045Z,65.68
2022-10-21T08:26:59.968Z,63.78
2022-10-21T08:27:56.944Z,63.82
2022-10-21T08:28:53.673Z,63.47
2022-10-21T08:29:50.548Z,64.83
2022-10-21T08:30:47.242Z,64.52
2022-10-21T08:31:44.048Z,63.14
2022-10-21T08:32:40.909Z,62.33
2022-10-21T08:33:38.559Z,63.05
2022-10-21T08:34:35.191Z,62.83
2022-10-21T08:35:31.929Z,63.26
2022-10-21T08:36:28.527Z,63.58
2022-10-21T08:37:25.754Z,64.25
2022-10-21T08:38:22.484Z,63.85
2022-10-21T08:39:19.076Z,64.40
2022-10-21T08:40:16.380Z,64.40
2022-10-21T08:41:31.163Z,64.77
2022-10-21T08:42:28.061Z,64.64
2022-10-21T08:43:28.824Z,63.76
2022-10-21T08:44:40.020Z,64.36
2022-10-21T08:45:46.352Z,64.88
2022-10-21T08:46:47.323Z,64.12
2022-10-21T08:47:52.367Z,63.80
2022-10-21T08:48:54.021Z,63.05
2022-10-21T08:49:56.447Z,62.57
2022-10-21T08:50:56.831Z,61.33
2022-10-21T08:52:04.632Z,60.76
2022-10-21T08:53:35.624Z,60.31
2022-10-21T08:54:59.337Z,60.14
2022-10-21T08:56:02.615Z,63.01
2022-10-21T08:57:00.541Z,61.87
2022-10-21T08:57:57.215Z,60.79
2022-10-21T08:58:54.840Z,60.05
2022-10-21T08:59:51.522Z,60.45
2022-10-21T09:00:58.927Z,60.19
2022-10-21T09:02:12.360Z,59.12
2022-10-21T09:03:23.557Z,58.55
2022-10-21T09:04:43.978Z,59.37
2022-10-21T09:05:59.198Z,58.75
2022-10-21T09:06:59.524Z,59.61
2022-10-21T09:08:04.660Z,59.91
2022-10-21T09:09:10.008Z,60.90
2022-10-21T09:10:51.419Z,59.92
2022-10-21T09:12:06.375Z,60.47
2022-10-21T09:13:21.731Z,59.65
2022-10-21T09:14:39.281Z,59.50
2022-10-21T09:15:57.635Z,58.24
2022-10-21T09:17:09.467Z,58.40
2022-10-21T09:18:09.180Z,58.16
2022-10-21T09:19:32.094Z,59.94
2022-10-21T09:20:50.141Z,60.25
2022-10-21T09:22:16.409Z,58.74
2022-10-21T09:23:40.360Z,59.09
2022-10-21T09:24:52.657Z,58.75
2022-10-21T09:26:00.049Z,58.26
2022-10-21T09:26:57.211Z,57.68
2022-10-21T09:27:56.847Z,57.04
2022-10-21T09:28:53.985Z,56.78
2022-10-21T09:29:56.816Z,56.62
2022-10-21T09:30:55.222Z,56.08
2022-10-21T09:31:57.238Z,56.65
2022-10-21T09:32:59.879Z,56.72
2022-10-21T09:34:02.587Z,56.17
2022-10-21T09:35:20.844Z,58.05
2022-10-21T09:36:36.636Z,59.11
2022-10-21T09:37:38.498Z,59.29
2022-10-21T09:39:08.093Z,58.51
2022-10-21T09:40:22.221Z,57.53
2022-10-21T09:41:23.252Z,57.96
2022-10-21T09:42:42.260Z,58.04
2022-10-21T09:43:37.218Z,58.63
2022-10-21T09:44:33.877Z,57.96
2022-10-21T09:45:30.403Z,57.12
2022-10-21T09:46:27.052Z,56.86
2022-10-21T09:47:24.827Z,57.39
2022-10-21T09:48:55.081Z,55.63
2022-10-21T09:50:13.810Z,55.31
2022-10-21T09:51:13.595Z,56.82
2022-10-21T09:52:11.573Z,57.41
2022-10-21T09:53:33.389Z,57.19
2022-10-21T09:54:34.110Z,57.63
2022-10-21T09:55:31.882Z,57.50
2022-10-21T09:56:36.054Z,57.04
2022-10-21T09:58:04.338Z,57.03
2022-10-21T09:59:08.626Z,56.99
2022-10-21T10:00:08.268Z,56.12
2022-10-21T10:01:07.912Z,55.87
2022-10-21T10:02:15.827Z,56.11
2022-10-21T10:03:12.911Z,56.73
2022-10-21T10:04:33.751Z,56.18
2022-10-21T10:05:35.435Z,55.41
2022-10-21T10:06:40.784Z,54.49
2022-10-21T10:07:37.632Z,54.78
2022-10-21T10:08:36.712Z,55.71
2022-10-21T10:09:34.615Z,55.69
2022-10-21T10:10:34.651Z,55.25
2022-10-21T10:11:31.314Z,54.82
2022-10-21T10:12:29.106Z,54.28
2022-10-21T10:13:27.320Z,54.41
2022-10-21T10:14:31.331Z,55.13
2022-10-21T10:15:36.345Z,54.39
2022-10-21T10:16:33.351Z,54.48
2022-10-21T10:17:34.167Z,54.99
2022-10-21T10:18:30.792Z,55.19
2022-10-21T10:19:28.694Z,54.91
2022-10-21T10:20:25.410Z,53.85
2022-10-21T10:21:22.674Z,54.25
2022-10-21T10:22:19.286Z,54.30
2022-10-21T10:23:19.824Z,53.87
2022-10-21T10:24:29.444Z,53.34
2022-10-21T10:25:34.656Z,52.90
2022-10-21T10:26:38.323Z,53.07
2022-10-21T10:27:35.565Z,53.14
2022-10-21T10:28:32.381Z,52.44
2022-10-21T10:29:29.319Z,52.52
2022-10-21T10:30:35.454Z,53.41
2022-10-21T10:31:35.164Z,52.33
2022-10-21T10:32:35.378Z,51.26
2022-10-21T10:33:35.889Z,51.70
2022-10-21T10:34:35.591Z,50.92
2022-10-21T10:35:35.859Z,50.63
2022-10-21T10:36:38.520Z,51.27
2022-10-21T10:37:37.839Z,51.09
2022-10-21T10:38:38.869Z,51.92
2022-10-21T10:39:39.492Z,51.11
2022-10-21T10:40:42.311Z,49.88
2022-10-21T10:41:41.187Z,51.01
2022-10-21T10:42:44.444Z,50.87
2022-10-21T10:43:48.055Z,51.59
2022-10-21T10:44:45.468Z,50.71
2022-10-21T10:46:10.312Z,50.59
2022-10-21T10:47:17.803Z,49.80
2022-10-21T10:48:22.981Z,51.03
2022-10-21T10:49:22.627Z,49.90
2022-10-21T10:50:37.819Z,50.61
2022-10-21T10:51:36.196Z,50.08
2022-10-21T10:52:33.194Z,50.25
2022-10-21T10:53:38.431Z,50.29
2022-10-21T10:54:35.311Z,51.36
2022-10-21T10:55:33.612Z,51.07
2022-10-21T10:56:48.927Z,50.35
2022-10-21T10:57:59.239Z,48.39
2022-10-21T10:59:18.391Z,49.50
2022-10-21T11:00:23.944Z,50.04
2022-10-21T11:01:35.564Z,50.48
2022-10-21T11:02:54.023Z,48.80
2022-10-21T11:04:06.294Z,49.30
2022-10-21T11:05:27.712Z,48.59
2022-10-21T11:06:34.344Z,52.99
2022-10-21T11:07:44.271Z,52.09
2022-10-21T11:08:50.278Z,51.72
2022-10-21T11:09:49.340Z,50.64
2022-10-21T11:10:50.584Z,50.11
2022-10-21T11:11:51.213Z,49.08
2022-10-21T11:12:47.868Z,48.81
2022-10-21T11:13:44.594Z,48.79
2022-10-21T11:14:41.260Z,49.07
2022-10-21T11:15:44.466Z,48.82
2022-10-21T11:17:09.255Z,48.00
2022-10-21T11:18:25.384Z,47.46
2022-10-21T11:19:39.754Z,48.10
2022-10-21T11:20:47.658Z,47.13
2022-10-21T11:21:54.619Z,46.97
2022-10-21T11:23:37.653Z,47.11
2022-10-21T11:24:52.974Z,46.53
2022-10-21T11:26:00.972Z,47.66
2022-10-21T11:27:04.664Z,46.81
2022-10-21T11:28:16.840Z,45.89
2022-10-21T11:29:34.443Z,47.84
2022-10-21T11:30:46.891Z,47.43
2022-10-21T11:32:14.239Z,46.57
2022-10-21T11:33:43.306Z,47.64
2022-10-21T11:34:54.570Z,46.97
2022-10-21T11:35:57.695Z,47.07
2022-10-21T11:37:13.112Z,46.68
2022-10-21T11:38:23.536Z,46.81
2022-10-21T11:39:28.937Z,45.58
2022-10-21T11:40:28.419Z,45.23
2022-10-21T11:41:39.055Z,46.08
2022-10-21T11:42:42.519Z,45.90
2022-10-21T11:43:57.093Z,45.82
2022-10-21T11:45:11.969Z,45.58
2022-10-21T11:46:14.834Z,45.32
2022-10-21T11:47:32.070Z,45.36
2022-10-21T11:48:39.675Z,45.43
2022-10-21T11:50:14.073Z,45.26
2022-10-21T11:51:19.603Z,44.28
2022-10-21T11:52:19.003Z,42.83
2022-10-21T11:53:32.231Z,42.82
2022-10-21T11:55:03.917Z,43.56
2022-10-21T11:56:15.621Z,43.78
2022-10-21T11:57:34.721Z,46.01
2022-10-21T11:58:50.062Z,44.32
2022-10-21T11:59:57.957Z,43.81
2022-10-21T12:01:08.770Z,43.03
2022-10-21T12:02:22.867Z,43.13
2022-10-21T12:04:03.940Z,43.62
2022-10-21T12:05:24.375Z,44.68
2022-10-21T12:06:40.009Z,44.57
2022-10-21T12:08:00.388Z,43.51
2022-10-21T12:09:06.029Z,44.10
2022-10-21T12:10:21.407Z,43.26
2022-10-21T12:11:48.984Z,43.75
2022-10-21T12:12:49.150Z,43.85
2022-10-21T12:13:50.709Z,44.12
2022-10-21T12:14:50.000Z,44.05
2022-10-21T12:15:52.548Z,44.11
2022-10-21T12:16:49.995Z,44.43
2022-10-21T12:17:49.720Z,43.65
2022-10-21T12:19:01.509Z,43.65
2022-10-21T12:20:00.775Z,43.67
2022-10-21T12:20:58.923Z,43.37
2022-10-21T12:21:55.852Z,43.55
2022-10-21T12:23:02.398Z,42.11
2022-10-21T12:24:31.233Z,42.34
2022-10-21T12:25:44.476Z,42.32
2022-10-21T12:26:48.349Z,41.70
2022-10-21T12:28:04.588Z,42.64
2022-10-21T12:29:06.873Z,41.26
2022-10-21T12:30:25.066Z,42.76
2022-10-21T12:31:38.818Z,42.55
2022-10-21T12:32:54.229Z,41.72
2022-10-21T12:33:51.229Z,41.73
2022-10-21T12:34:48.409Z,41.98
2022-10-21T12:35:56.606Z,41.57
2022-10-21T12:36:54.753Z,40.80
2022-10-21T12:37:53.367Z,40.82
2022-10-21T12:38:52.712Z,41.28
2022-10-21T12:39:50.874Z,41.60
2022-10-21T12:40:49.391Z,42.80
2022-10-21T12:41:47.907Z,43.40
2022-10-21T12:43:28.541Z,42.47
2022-10-21T12:44:27.958Z,42.22
2022-10-21T12:45:33.618Z,40.91
2022-10-21T12:46:39.174Z,41.86
2022-10-21T12:47:45.336Z,41.76
2022-10-21T12:48:48.396Z,42.38
2022-10-21T12:49:44.999Z,41.34
2022-10-21T12:50:41.893Z,42.44
2022-10-21T12:51:39.464Z,41.54
2022-10-21T12:52:38.508Z,41.85
2022-10-21T12:54:04.049Z,41.52
2022-10-21T12:55:03.631Z,41.82
2022-10-21T12:56:01.818Z,41.49
2022-10-21T12:57:10.800Z,43.76
2022-10-21T12:58:22.235Z,41.98
2022-10-21T12:59:32.831Z,41.46
2022-10-21T13:00:29.345Z,41.70
2022-10-21T13:02:08.046Z,41.59
2022-10-21T13:03:21.880Z,42.61
2022-10-21T13:04:38.478Z,43.33
2022-10-21T13:05:38.057Z,41.07
2022-10-21T13:06:51.760Z,41.44
2022-10-21T13:08:20.268Z,41.41
2022-10-21T13:09:38.128Z,40.46
2022-10-21T13:10:34.750Z,40.70
2022-10-21T13:11:34.131Z,39.84
2022-10-21T13:12:32.596Z,41.14
2022-10-21T13:13:33.268Z,39.74
2022-10-21T13:14:39.812Z,40.46
2022-10-21T13:15:46.651Z,41.46
2022-10-21T13:16:43.772Z,41.22